Nearby METAR Reports

 

KCXY - Harrisburg, Pennsylvania, USA
Distance from station: E 9mi, 14km
Updated: Fri, 17-Sep-2021 11:56am EDT
Overcast
Overcast
 Wind from ESE
Wind: ESE 6 mph , 9 km/h
Temperature: 77°F , 25°C
Dew Point: 68°F , 20°C
Humidity: 74%
Barometer: 30.23 inHg , 1023.7 hPa
Clouds: Overcast
Visibility: 10 miles , 16 km
Cloud details: Partly cloudy 1700 ft
Overcast 2400 ft
2021/09/17 15:56 KCXY 171556Z 12005KT 10SM SCT017 OVC024 25/20 A3023 RMK AO2 SLP234 T02500200
KMDT - Middletown, Pennsylvania, USA
Distance from station: E 13mi, 21km
Updated: Fri, 17-Sep-2021 11:56am EDT
Overcast
Overcast
 Wind from ESE
Wind: ESE 9 mph , 15 km/h
Temperature: 77°F , 25°C
Dew Point: 66°F , 19°C
Humidity: 69%
Barometer: 30.22 inHg , 1023.4 hPa
Clouds: Overcast
Visibility: 10 miles , 16 km
Cloud details: Mostly cloudy 2000 ft
Overcast 2500 ft
2021/09/17 15:56 KMDT 171556Z 11008KT 10SM BKN020 OVC025 25/19 A3022 RMK AO2 SLP231 T02500194
 
KTHV - York, Pennsylvania, USA
Distance from station: SSE 22mi, 36km
Updated: Fri, 17-Sep-2021 11:53am EDT
Overcast
Overcast
 Wind from ENE
Wind: ENE 5 mph , 7 km/h
Temperature: 73°F , 23°C
Dew Point: 66°F , 19°C
Humidity: 78%
Barometer: 30.23 inHg , 1023.7 hPa
Clouds: Overcast
Visibility: 10 miles , 16 km
Cloud details: Overcast 2100 ft
2021/09/17 15:53 KTHV 171553Z AUTO 06004KT 10SM OVC021 23/19 A3023 RMK AO2 SLP235 T02330194
KMUI - Muir Aaf/Indiant, Pennsylvania, USA
Distance from station: ENE 27mi, 44km
Updated: Fri, 17-Sep-2021 11:58am EDT
Mist, Overcast
Mist, Overcast
 Wind from E
Wind: E 5 mph , 7 km/h
Temperature: 72°F , 22°C
Dew Point: 66°F , 19°C
Humidity: 83%
Barometer: 30.24 inHg , 1024 hPa
Summary: Mist
Clouds: Overcast
Visibility: 6 miles , 10 km
Cloud details: Few Clouds 800 ft
Overcast 1100 ft
2021/09/17 15:58 KMUI 171558Z 08004KT 6SM BR FEW008 OVC011 22/19 A3024 RMK AO2A DZE14 SLP241 T02240193
 
KLNS - Lancaster, Pennsylvania, USA
Distance from station: E 38mi, 62km
Updated: Fri, 17-Sep-2021 12:25pm EDT
Overcast
Overcast
 Wind from E
Wind: E 7 mph , 11 km/h
Temperature: 77°F , 25°C
Dew Point: 68°F , 20°C
Humidity: 74%
Barometer: 30.22 inHg , 1023.4 hPa
Clouds: Overcast
Visibility: 10 miles , 16 km
Cloud details: Few Clouds 1700 ft
Partly cloudy 2600 ft
Overcast 3400 ft
2021/09/17 16:25 KLNS 171625Z 10006KT 10SM FEW017 SCT026 OVC034 25/20 A3022 RMK AO2 T02500200
KRYT - Fountain Dale, Pennsylvania, USA
Distance from station: SSW 40mi, 65km
Updated: Mon, 13-Nov-2017 7:53am EST
NOT Current
Mist, Overcast
Mist, Overcast
 Wind from calm
Wind: Calm
Temperature: 37°F , 3°C
Dew Point: 34°F , 1°C
Humidity: 87%
Barometer: 30.31 inHg , 1026.4 hPa
Summary: Mist
Clouds: Overcast
Visibility: 5 miles , 8 km
Cloud details: Overcast 700 ft
2017/11/13 12:53 KRYT 131253Z AUTO 00000KT 5SM BR OVC007 03/01 A3031 RMK AO2 SLP275 T00280011 TSNO $
 
KSEG - Selinsgrove, Pennsylvania, USA
Distance from station: N 42mi, 67km
Updated: Fri, 17-Sep-2021 11:53am EDT
Overcast
Overcast
 Wind from calm
Wind: Calm
Temperature: 75°F , 24°C
Dew Point: 68°F , 20°C
Humidity: 78%
Barometer: 30.24 inHg , 1024 hPa
Clouds: Overcast
Visibility: 10 miles , 16 km
Cloud details: Overcast 2200 ft
2021/09/17 15:53 KSEG 171553Z AUTO 00000KT 10SM OVC022 24/20 A3024 RMK AO2 SLP238 T02390200
KDMW - Carroll Cnty, Maryland, USA
Distance from station: S 43mi, 69km
Updated: Fri, 17-Sep-2021 12:35pm EDT
Rain, Overcast
Rain, Overcast
 Wind from ENE
Wind: ENE 3 mph , 6 km/h
Temperature: 75°F , 24°C
Dew Point: 72°F , 22°C
Humidity: 89%
Barometer: 30.23 inHg , 1023.7 hPa
Summary: Rain
Clouds: Overcast
Visibility: 3 miles , 5 km
Cloud details: Partly cloudy 1800 ft
Mostly cloudy 2300 ft
Overcast 2900 ft
2021/09/17 16:35 KDMW 171635Z AUTO 07003KT 3SM RA SCT018 BKN023 OVC029 24/22 A3023 RMK AO2 P0001
 
KRSP - Camp David, Maryland, USA
Distance from station: SSW 46mi, 74km
Updated: Fri, 17-Sep-2021 12:20pm EDT
Overcast
Overcast
 Wind from ESE
Wind: ESE 5 mph , 7 km/h
Temperature: 72°F , 22°C
Dew Point: 66°F , 19°C
Humidity: 83%
Barometer: 30.28 inHg , 1025.4 hPa
Clouds: Overcast
Visibility: 10 miles , 16 km
Cloud details: Partly cloudy 800 ft
Mostly cloudy 1200 ft
Overcast 1700 ft
2021/09/17 16:20 KRSP 171620Z AUTO 11004KT 10SM SCT008 BKN012 OVC017 22/19 A3028 RMK AO2 T02170189 TSNO PNO $